Copalis Beach, WA

1:29 PM PDT on September 04, 2015 (GMT -0700)
North End of Duck Lake | | Change Station
CLOSE
Current Station
Personal Weather Station
Location: Ocean Shores, WA
Elevation: 30 ft
Nearby Weather Stations

Elev 30 ft 47.00 °N, 124.15 °W | Updated 15 seconds ago

Clear
Clear
63.1 °F
Feels Like 63.1 °F
N
3.0
Wind Variable Wind from West
Gusts 8.0 mph

Today
High -- | Low -- °F
--% Chance of Precip.
Yesterday
High -- | Low -- °F
Precip. -- in
6:39 AM 7:50 PM
Waning Gibbous, 56% visible
Pressure 30.01 in
Visibility 8.0 miles
Clouds Scattered Clouds 3500 ft
Scattered Clouds 4400 ft
Mostly Cloudy 6000 ft
Dew Point 53 °F
Humidity 69%
Rainfall 0.00 in
Snow Depth Not available.
UV 4 out of 12
Pollen 2.40 out of 12
Air Quality Not available.
Flu Activity Not available.
METAR KHQM 041953Z AUTO 17005KT 8SM SCT035 SCT044 BKN060 17/09 A3000 RMK AO2 SLP162 T01720089
Pressure 30.01 in
Visibility 8.0 miles
Clouds Scattered Clouds 3500 ft
Scattered Clouds 4400 ft
Mostly Cloudy 6000 ft
Dew Point 53 °F
Humidity 69%
Rainfall 0.00 in
Snow Depth Not available.
UV 4 out of 12
Pollen 2.40 out of 12
Air Quality Not available.
Flu Activity Not available.
METAR KHQM 041953Z AUTO 17005KT 8SM SCT035 SCT044 BKN060 17/09 A3000 RMK AO2 SLP162 T01720089

10-Day Weather Forecast

×

Almanac

Astronomy

Sep. 04, 2015 Rise Set
Actual Time
Civil Twilight
Nautical Twilight
Astronomical Twilight
Moon
Length of Visible Light
Length of Day
Tomorrow will be .
, % of the Moon is Illuminated

Today's Extremes

State Highs State Lows

Community

WunderPhotos

Upload Photos

1,852,272 photos uploaded!

WunderBlogs® & News

Nearby

Air Quality

  Air Quality AQ Index Pollutant
Not available.

Snow Depth

Station Depth Elevation

Earthquake Activity

City Distance Mag. Time & Date
Minimum magnitude displayed is 2.5.

Coastal Water Temperatures

Place Temperature

Stations

Nearby Weather Stations

Station Location Temp. Windchill Dew Point Humidity Wind Precip. Elev Updated Type